createdAt,value
2022-10-06T00:01:03.135Z,2.55
2022-10-06T00:03:31.082Z,1.90
2022-10-06T00:06:02.929Z,2.07
2022-10-06T00:08:34.597Z,1.92
2022-10-06T00:11:03.041Z,1.90
2022-10-06T00:13:31.067Z,2.05
2022-10-06T00:16:00.052Z,2.10
2022-10-06T00:18:28.042Z,1.23
2022-10-06T00:20:56.267Z,2.40
2022-10-06T00:23:23.980Z,1.80
2022-10-06T00:25:51.411Z,2.72
2022-10-06T00:28:18.734Z,2.50
2022-10-06T00:30:46.761Z,1.80
2022-10-06T00:33:16.036Z,2.38
2022-10-06T00:35:46.409Z,2.47
2022-10-06T00:38:14.453Z,1.98
2022-10-06T00:40:46.840Z,1.92
2022-10-06T00:43:33.208Z,2.23
2022-10-06T00:46:00.689Z,2.65
2022-10-06T00:48:28.445Z,1.65
2022-10-06T00:50:57.469Z,1.88
2022-10-06T00:53:28.286Z,1.63
2022-10-06T00:55:55.647Z,2.37
2022-10-06T00:58:22.859Z,1.75
2022-10-06T01:00:54.136Z,2.10
2022-10-06T01:03:23.854Z,1.75
2022-10-06T01:05:51.991Z,2.05
2022-10-06T01:08:19.716Z,1.83
2022-10-06T01:10:46.987Z,2.25
2022-10-06T01:13:15.156Z,1.65
2022-10-06T01:15:48.509Z,1.88
2022-10-06T01:18:18.571Z,1.70
2022-10-06T01:20:51.598Z,2.07
2022-10-06T01:23:19.334Z,1.83
2022-10-06T01:25:47.323Z,1.50
2022-10-06T01:28:15.165Z,1.60
2022-10-06T01:30:50.998Z,1.65
2022-10-06T01:33:19.901Z,2.00
2022-10-06T01:35:49.472Z,2.38
2022-10-06T01:38:17.510Z,1.70
2022-10-06T01:40:47.356Z,1.90
2022-10-06T01:43:14.813Z,1.30
2022-10-06T01:45:43.562Z,1.97
2022-10-06T01:48:10.824Z,1.50
2022-10-06T01:50:41.244Z,1.50
2022-10-06T01:53:08.532Z,2.05
2022-10-06T01:55:36.281Z,2.13
2022-10-06T01:58:06.167Z,1.90
2022-10-06T02:00:34.034Z,1.67
2022-10-06T02:03:01.324Z,1.60
2022-10-06T02:05:29.250Z,1.70
2022-10-06T02:07:56.666Z,1.55
2022-10-06T02:10:24.083Z,1.77
2022-10-06T02:12:53.273Z,1.83
2022-10-06T02:15:22.344Z,1.92
2022-10-06T02:17:49.781Z,1.90
2022-10-06T02:20:17.171Z,1.95
2022-10-06T02:22:44.645Z,1.90
2022-10-06T02:25:12.495Z,1.52
2022-10-06T02:27:40.243Z,1.80
2022-10-06T02:30:11.036Z,1.77
2022-10-06T02:32:40.515Z,2.08
2022-10-06T02:35:12.780Z,2.60
2022-10-06T02:37:41.500Z,2.15
2022-10-06T02:40:10.777Z,2.63
2022-10-06T02:42:38.577Z,2.10
2022-10-06T02:45:07.086Z,1.92
2022-10-06T02:47:35.770Z,1.77
2022-10-06T02:50:05.330Z,2.60
2022-10-06T02:52:36.752Z,1.58
2022-10-06T02:55:06.314Z,1.45
2022-10-06T02:57:33.799Z,2.38
2022-10-06T03:00:01.754Z,1.87
2022-10-06T03:02:32.078Z,2.03
2022-10-06T03:05:00.396Z,2.20
2022-10-06T03:07:28.234Z,1.75
2022-10-06T03:09:55.638Z,2.33
2022-10-06T03:12:27.776Z,2.70
2022-10-06T03:14:55.154Z,2.47
2022-10-06T03:17:22.767Z,2.00
2022-10-06T03:19:57.015Z,1.90
2022-10-06T03:22:25.233Z,1.75
2022-10-06T03:24:55.237Z,2.40
2022-10-06T03:27:22.873Z,2.22
2022-10-06T03:29:52.595Z,1.90
2022-10-06T03:32:24.126Z,1.92
2022-10-06T03:34:54.272Z,1.60
2022-10-06T03:37:22.926Z,1.80
2022-10-06T03:39:50.854Z,1.85
2022-10-06T03:42:19.361Z,1.83
2022-10-06T03:44:47.565Z,1.50
2022-10-06T03:47:17.479Z,2.03
2022-10-06T03:49:45.960Z,1.67
2022-10-06T03:52:15.348Z,1.67
2022-10-06T03:54:42.724Z,2.30
2022-10-06T03:57:10.171Z,1.40
2022-10-06T03:59:38.427Z,2.25
2022-10-06T04:02:07.126Z,1.90
2022-10-06T04:04:37.860Z,1.92
2022-10-06T04:07:09.071Z,2.05
2022-10-06T04:09:36.811Z,2.45
2022-10-06T04:12:04.267Z,1.73
2022-10-06T04:14:33.820Z,1.73
2022-10-06T04:17:01.674Z,1.65
2022-10-06T04:19:34.967Z,2.33
2022-10-06T04:22:03.161Z,1.90
2022-10-06T04:24:31.169Z,1.55
2022-10-06T04:27:18.482Z,3.00
2022-10-06T04:29:52.495Z,2.13
2022-10-06T04:32:20.057Z,2.00
2022-10-06T04:34:47.369Z,1.95
2022-10-06T04:37:15.373Z,1.65
2022-10-06T04:39:44.044Z,2.10
2022-10-06T04:42:11.391Z,1.65
2022-10-06T04:44:38.885Z,1.98
2022-10-06T04:47:07.217Z,1.83
2022-10-06T04:49:34.820Z,2.53
2022-10-06T04:52:02.805Z,1.70
2022-10-06T04:54:34.038Z,2.17
2022-10-06T04:57:03.902Z,2.10
2022-10-06T04:59:50.137Z,2.10
2022-10-06T05:02:19.415Z,2.42
2022-10-06T05:04:50.374Z,1.90
2022-10-06T05:07:18.427Z,2.20
2022-10-06T05:09:45.777Z,2.03
2022-10-06T05:12:13.075Z,1.70
2022-10-06T05:14:40.973Z,2.03
2022-10-06T05:17:08.655Z,1.83
2022-10-06T05:19:37.449Z,1.80
2022-10-06T05:22:05.329Z,2.40
2022-10-06T05:24:33.533Z,1.95
2022-10-06T05:27:03.869Z,2.60
2022-10-06T05:29:32.323Z,2.03
2022-10-06T05:31:59.580Z,2.10
2022-10-06T05:34:29.004Z,2.38
2022-10-06T05:36:56.432Z,1.83
2022-10-06T05:39:23.739Z,1.88
2022-10-06T05:41:55.943Z,2.10
2022-10-06T05:44:24.205Z,2.40
2022-10-06T05:46:51.971Z,2.03
2022-10-06T05:49:20.112Z,2.30
2022-10-06T05:52:05.777Z,2.55
2022-10-06T05:54:36.018Z,2.23
2022-10-06T05:57:03.472Z,2.50
2022-10-06T05:59:33.317Z,2.20
2022-10-06T06:02:01.803Z,2.10
2022-10-06T06:04:36.962Z,2.40
2022-10-06T06:07:04.191Z,2.60
2022-10-06T06:09:31.564Z,1.90
2022-10-06T06:12:03.710Z,2.80
2022-10-06T06:14:55.969Z,2.20
2022-10-06T06:17:26.405Z,2.35
2022-10-06T06:19:53.776Z,2.57
2022-10-06T06:22:21.402Z,2.20
2022-10-06T06:24:50.385Z,2.20
2022-10-06T06:27:18.102Z,1.90
2022-10-06T06:29:45.967Z,2.28
2022-10-06T06:32:13.661Z,2.40
2022-10-06T06:34:41.573Z,2.50
2022-10-06T06:37:15.100Z,2.45
2022-10-06T06:39:43.406Z,2.20
2022-10-06T06:42:10.710Z,2.47
2022-10-06T06:45:10.519Z,2.17
2022-10-06T06:47:43.799Z,2.38
2022-10-06T06:50:11.160Z,2.40
2022-10-06T06:52:41.903Z,2.33
2022-10-06T06:55:11.663Z,2.42
2022-10-06T06:57:38.961Z,1.93
2022-10-06T07:00:07.921Z,1.83
2022-10-06T07:02:36.641Z,2.47
2022-10-06T07:05:04.886Z,2.08
2022-10-06T07:07:32.425Z,2.40
2022-10-06T07:10:00.544Z,2.30
2022-10-06T07:12:29.566Z,2.03
2022-10-06T07:15:16.994Z,2.45
2022-10-06T07:18:05.904Z,3.08
2022-10-06T07:20:51.792Z,2.78
2022-10-06T07:23:40.332Z,2.20
2022-10-06T07:26:12.536Z,2.15
2022-10-06T07:28:42.377Z,2.38
2022-10-06T07:31:10.893Z,2.85
2022-10-06T07:33:40.927Z,2.45
2022-10-06T07:36:09.784Z,2.40
2022-10-06T07:38:37.581Z,2.55
2022-10-06T07:41:18.809Z,2.30
2022-10-06T07:43:53.904Z,2.45
2022-10-06T07:46:22.345Z,2.67
2022-10-06T07:49:03.772Z,3.17
2022-10-06T07:51:31.704Z,2.40
2022-10-06T07:54:00.075Z,2.20
2022-10-06T07:56:46.840Z,2.10
2022-10-06T07:59:14.080Z,2.50
2022-10-06T08:01:41.424Z,2.67
2022-10-06T08:04:08.775Z,2.53
2022-10-06T08:06:36.439Z,2.47
2022-10-06T08:09:03.788Z,2.58
2022-10-06T08:11:31.133Z,2.80
2022-10-06T08:13:58.795Z,2.33
2022-10-06T08:16:30.579Z,2.60
2022-10-06T08:18:59.363Z,2.83
2022-10-06T08:21:28.933Z,2.60
2022-10-06T08:23:56.764Z,2.45
2022-10-06T08:26:25.292Z,2.27
2022-10-06T08:28:53.793Z,2.22
2022-10-06T08:31:22.393Z,2.38
2022-10-06T08:33:54.040Z,2.05
2022-10-06T08:36:21.603Z,2.50
2022-10-06T08:38:51.680Z,2.07
2022-10-06T08:41:19.028Z,2.60
2022-10-06T08:44:04.499Z,2.53
2022-10-06T08:46:35.668Z,2.25
2022-10-06T08:49:03.263Z,2.20
2022-10-06T08:51:38.889Z,2.53
2022-10-06T08:54:10.821Z,2.20
2022-10-06T08:56:58.550Z,1.92
2022-10-06T08:59:25.916Z,1.60
2022-10-06T09:01:54.877Z,1.58
2022-10-06T09:04:28.796Z,1.40
2022-10-06T09:07:00.381Z,1.80
2022-10-06T09:09:47.513Z,2.20
2022-10-06T09:12:20.883Z,1.75
2022-10-06T09:14:53.352Z,1.73
2022-10-06T09:17:26.162Z,1.90
2022-10-06T09:19:53.824Z,2.00
2022-10-06T09:22:22.868Z,1.77
2022-10-06T09:24:55.138Z,2.45
2022-10-06T09:27:24.206Z,1.73
2022-10-06T09:29:53.159Z,2.73
2022-10-06T09:32:21.845Z,1.70
2022-10-06T09:34:55.346Z,2.10
2022-10-06T09:37:23.260Z,1.90
2022-10-06T09:39:51.922Z,1.50
2022-10-06T09:42:23.860Z,1.83
2022-10-06T09:44:51.431Z,2.28
2022-10-06T09:47:36.918Z,2.10
2022-10-06T09:50:14.206Z,2.03
2022-10-06T09:53:03.490Z,1.90
2022-10-06T09:55:31.047Z,1.70
2022-10-06T09:57:58.711Z,1.83
2022-10-06T10:00:35.891Z,1.60
2022-10-06T10:03:04.904Z,1.10
2022-10-06T10:05:40.095Z,2.00
2022-10-06T10:08:18.569Z,1.43
2022-10-06T10:10:45.932Z,0.80
2022-10-06T10:13:27.123Z,0.90
2022-10-06T10:15:57.608Z,1.45
2022-10-06T10:18:30.285Z,1.33
2022-10-06T10:21:05.159Z,1.43
2022-10-06T10:23:43.407Z,1.30
2022-10-06T10:26:17.743Z,1.30
2022-10-06T10:28:50.720Z,1.40
2022-10-06T10:31:21.348Z,1.30
2022-10-06T10:34:12.444Z,1.37
2022-10-06T10:36:44.875Z,1.10
2022-10-06T10:39:14.784Z,1.50
2022-10-06T10:41:46.382Z,1.17
2022-10-06T10:44:32.482Z,0.95
2022-10-06T10:47:07.370Z,1.17
2022-10-06T10:49:35.845Z,1.10
2022-10-06T10:52:08.082Z,1.00
2022-10-06T10:54:42.580Z,1.02
2022-10-06T10:57:16.859Z,1.02
2022-10-06T10:59:52.659Z,1.13
2022-10-06T11:02:21.513Z,1.35
2022-10-06T11:04:51.074Z,1.50
2022-10-06T11:07:19.614Z,1.30
2022-10-06T11:09:59.466Z,1.08
2022-10-06T11:12:36.505Z,1.13
2022-10-06T11:15:06.441Z,1.55
2022-10-06T11:17:46.714Z,0.90
2022-10-06T11:20:13.943Z,0.98
2022-10-06T11:22:53.637Z,1.25
2022-10-06T11:25:20.888Z,1.17
2022-10-06T11:27:59.780Z,1.10
2022-10-06T11:30:27.532Z,1.02
2022-10-06T11:33:13.694Z,1.33
2022-10-06T11:35:43.707Z,1.15
2022-10-06T11:38:28.145Z,1.33
2022-10-06T11:41:09.742Z,1.40
2022-10-06T11:43:41.056Z,1.20
2022-10-06T11:46:16.075Z,1.27
2022-10-06T11:48:43.863Z,1.15
2022-10-06T11:51:17.260Z,1.30
2022-10-06T11:53:47.890Z,0.90
2022-10-06T11:56:18.179Z,1.00
2022-10-06T11:58:54.423Z,1.30
2022-10-06T12:01:34.701Z,1.15
2022-10-06T12:04:05.506Z,1.40
2022-10-06T12:06:45.630Z,1.65
2022-10-06T12:09:39.349Z,1.00
2022-10-06T12:12:17.821Z,1.30
2022-10-06T12:17:58.316Z,1.40
2022-10-06T12:20:51.398Z,1.23
2022-10-06T12:23:24.045Z,1.30
2022-10-06T12:25:54.127Z,1.17
2022-10-06T12:28:30.815Z,1.40
2022-10-06T12:31:18.421Z,1.47
2022-10-06T12:33:46.116Z,1.13
2022-10-06T12:36:18.374Z,1.33
2022-10-06T12:39:05.942Z,1.05
2022-10-06T12:41:52.701Z,1.30
2022-10-06T12:44:23.928Z,1.10
2022-10-06T12:46:52.009Z,1.30
2022-10-06T12:49:19.234Z,1.23
2022-10-06T12:51:47.704Z,1.10
2022-10-06T12:54:25.657Z,1.33
2022-10-06T12:57:00.160Z,1.20
2022-10-06T12:59:35.197Z,1.80
2022-10-06T13:02:05.409Z,1.60
2022-10-06T13:04:37.898Z,1.30
2022-10-06T13:07:16.850Z,1.20
2022-10-06T13:09:44.282Z,1.43
2022-10-06T13:12:25.717Z,1.35
2022-10-06T13:15:11.768Z,1.27
2022-10-06T13:17:44.027Z,1.60
2022-10-06T13:20:22.534Z,1.52
2022-10-06T13:22:57.513Z,1.20
2022-10-06T13:25:25.170Z,1.20
2022-10-06T13:27:52.667Z,0.80
2022-10-06T13:30:23.432Z,1.60
2022-10-06T13:32:54.566Z,1.30
2022-10-06T13:35:24.474Z,0.93
2022-10-06T13:37:53.710Z,1.23
2022-10-06T13:40:45.749Z,1.50
2022-10-06T13:43:16.302Z,1.70
2022-10-06T13:45:44.696Z,0.90
2022-10-06T13:48:16.178Z,1.27
2022-10-06T13:50:47.762Z,0.93
2022-10-06T13:53:29.484Z,1.30
2022-10-06T13:55:57.115Z,1.02
2022-10-06T13:58:28.367Z,1.60
2022-10-06T14:01:01.007Z,1.23
2022-10-06T14:06:12.758Z,1.50
2022-10-06T14:08:40.048Z,1.00
2022-10-06T14:11:08.317Z,1.38
2022-10-06T14:13:42.384Z,1.07
2022-10-06T14:16:11.084Z,1.15
2022-10-06T14:18:40.155Z,1.50
2022-10-06T14:21:37.147Z,1.30
2022-10-06T14:24:07.613Z,1.15
2022-10-06T14:26:37.591Z,1.23
2022-10-06T14:29:04.930Z,1.00
2022-10-06T14:31:34.109Z,1.10
2022-10-06T14:34:01.832Z,1.13
2022-10-06T14:36:37.700Z,1.00
2022-10-06T14:39:05.781Z,1.40
2022-10-06T14:41:33.199Z,1.48
2022-10-06T14:44:03.780Z,1.20
2022-10-06T14:46:31.999Z,1.48
2022-10-06T14:49:00.238Z,0.82
2022-10-06T14:51:29.275Z,1.43
2022-10-06T14:53:59.521Z,1.33
2022-10-06T14:56:31.718Z,0.90
2022-10-06T14:59:05.560Z,1.20
2022-10-06T15:01:34.108Z,1.23
2022-10-06T15:04:02.531Z,0.90
2022-10-06T15:06:49.266Z,1.20
2022-10-06T15:09:19.058Z,1.10
2022-10-06T15:11:46.408Z,1.08
2022-10-06T15:14:13.842Z,1.30
2022-10-06T15:16:42.470Z,1.47
2022-10-06T15:19:11.845Z,1.30
2022-10-06T15:21:45.313Z,1.10
2022-10-06T15:24:13.892Z,1.10
2022-10-06T15:27:00.538Z,1.20
2022-10-06T15:29:28.508Z,1.00
2022-10-06T15:31:56.030Z,1.55
2022-10-06T15:34:27.525Z,1.10
2022-10-06T15:36:55.540Z,1.75
2022-10-06T15:39:24.335Z,1.30
2022-10-06T15:41:51.681Z,1.83
2022-10-06T15:44:19.691Z,1.52
2022-10-06T15:46:49.232Z,1.50
2022-10-06T15:49:20.696Z,1.70
2022-10-06T15:51:49.235Z,1.40
2022-10-06T15:54:20.695Z,1.60
2022-10-06T15:56:48.973Z,1.55
2022-10-06T15:59:16.833Z,1.00
2022-10-06T16:01:46.895Z,1.20
2022-10-06T16:04:20.878Z,1.20
2022-10-06T16:06:55.136Z,1.90
2022-10-06T16:09:23.585Z,1.77
2022-10-06T16:11:51.176Z,2.05
2022-10-06T16:14:18.691Z,1.70
2022-10-06T16:16:49.706Z,1.70
2022-10-06T16:19:17.807Z,2.10
2022-10-06T16:21:47.041Z,1.48
2022-10-06T16:24:14.310Z,1.23
2022-10-06T16:26:41.686Z,1.80
2022-10-06T16:29:09.355Z,1.60
2022-10-06T16:31:36.832Z,1.90
2022-10-06T16:34:04.585Z,1.65
2022-10-06T16:36:32.238Z,1.60
2022-10-06T16:38:59.530Z,1.70
2022-10-06T16:41:26.919Z,1.55
2022-10-06T16:43:54.465Z,1.93
2022-10-06T16:46:26.400Z,1.65
2022-10-06T16:48:54.843Z,1.52
2022-10-06T16:51:22.108Z,1.92
2022-10-06T16:53:50.890Z,2.33
2022-10-06T16:56:23.017Z,1.77
2022-10-06T16:58:54.786Z,2.58
2022-10-06T17:01:23.348Z,2.08
2022-10-06T17:04:07.738Z,1.75
2022-10-06T17:06:35.832Z,1.60
2022-10-06T17:09:03.197Z,1.67
2022-10-06T17:11:30.455Z,1.92
2022-10-06T17:13:57.999Z,1.85
2022-10-06T17:16:29.869Z,1.60
2022-10-06T17:18:58.144Z,1.80
2022-10-06T17:21:44.840Z,2.10
2022-10-06T17:24:13.337Z,2.00
2022-10-06T17:26:41.929Z,2.03
2022-10-06T17:29:13.758Z,2.75
2022-10-06T17:31:42.282Z,2.15
2022-10-06T17:34:18.245Z,2.13
2022-10-06T17:36:49.025Z,1.98
2022-10-06T17:39:18.146Z,1.70
2022-10-06T17:41:46.050Z,1.73
2022-10-06T17:44:16.954Z,1.77
2022-10-06T17:46:48.731Z,1.87
2022-10-06T17:49:16.765Z,1.63
2022-10-06T17:51:45.263Z,2.13
2022-10-06T17:54:16.998Z,1.58
2022-10-06T17:56:46.026Z,2.03
2022-10-06T17:59:22.153Z,1.70
2022-10-06T18:01:51.183Z,2.08
2022-10-06T18:04:19.048Z,1.92
2022-10-06T18:06:47.084Z,1.90
2022-10-06T18:09:15.051Z,1.90
2022-10-06T18:11:44.409Z,1.70
2022-10-06T18:14:12.345Z,2.00
2022-10-06T18:16:42.288Z,1.88
2022-10-06T18:19:14.174Z,1.58
2022-10-06T18:21:42.387Z,2.00
2022-10-06T18:24:16.177Z,2.90
2022-10-06T18:26:48.827Z,2.50
2022-10-06T18:29:17.187Z,2.35
2022-10-06T18:31:44.967Z,1.98
2022-10-06T18:37:00.008Z,2.40
2022-10-06T18:39:31.159Z,5.25
2022-10-06T18:42:02.435Z,2.15
2022-10-06T18:44:48.460Z,2.40
2022-10-06T18:47:34.604Z,2.47
2022-10-06T18:50:02.013Z,2.47
2022-10-06T18:52:29.498Z,2.33
2022-10-06T18:54:56.755Z,1.80
2022-10-06T18:57:27.754Z,2.42
2022-10-06T18:59:55.409Z,2.00
2022-10-06T19:02:22.862Z,2.20
2022-10-06T19:04:50.206Z,2.08
2022-10-06T19:07:17.689Z,2.15
2022-10-06T19:09:46.812Z,2.33
2022-10-06T19:12:14.751Z,2.88
2022-10-06T19:14:47.592Z,2.00
2022-10-06T19:17:16.241Z,2.35
2022-10-06T19:19:45.421Z,1.63
2022-10-06T19:22:13.857Z,2.47
2022-10-06T19:24:42.455Z,2.30
2022-10-06T19:27:17.592Z,3.23
2022-10-06T19:29:46.874Z,2.90
2022-10-06T19:32:16.129Z,2.08
2022-10-06T19:34:43.956Z,1.85
2022-10-06T19:37:11.915Z,2.40
2022-10-06T19:39:42.663Z,2.67
2022-10-06T19:42:29.688Z,3.13
2022-10-06T19:44:57.135Z,2.20
2022-10-06T19:47:24.725Z,1.88
2022-10-06T19:49:57.857Z,2.10
2022-10-06T19:52:26.392Z,2.50
2022-10-06T19:54:53.735Z,2.33
2022-10-06T19:57:23.514Z,2.88
2022-10-06T19:59:51.128Z,2.45
2022-10-06T20:02:18.452Z,2.33
2022-10-06T20:04:45.798Z,2.40
2022-10-06T20:07:13.233Z,3.20
2022-10-06T20:09:40.670Z,2.30
2022-10-06T20:12:08.032Z,2.67
2022-10-06T20:14:36.375Z,2.45
2022-10-06T20:17:03.756Z,2.80
2022-10-06T20:19:31.170Z,2.72
2022-10-06T20:21:59.000Z,2.30
2022-10-06T20:24:26.407Z,2.60
2022-10-06T20:26:54.258Z,2.10
2022-10-06T20:29:25.223Z,2.47
2022-10-06T20:31:58.818Z,2.78
2022-10-06T20:34:32.815Z,2.70
2022-10-06T20:37:01.962Z,3.42
2022-10-06T20:39:49.006Z,2.13
2022-10-06T20:42:16.435Z,2.70
2022-10-06T20:44:44.340Z,2.50
2022-10-06T20:47:12.557Z,2.75
2022-10-06T20:49:41.190Z,2.90
2022-10-06T20:52:10.003Z,2.70
2022-10-06T20:54:37.695Z,2.40
2022-10-06T20:57:06.304Z,3.42
2022-10-06T20:59:35.585Z,2.40
2022-10-06T21:02:03.175Z,2.63
2022-10-06T21:04:30.603Z,2.80
2022-10-06T21:06:57.963Z,3.30
2022-10-06T21:09:25.474Z,2.53
2022-10-06T21:11:52.889Z,2.83
2022-10-06T21:14:20.250Z,3.20
2022-10-06T21:16:49.858Z,2.78
2022-10-06T21:19:18.005Z,2.30
2022-10-06T21:21:49.731Z,2.30
2022-10-06T21:24:17.000Z,3.05
2022-10-06T21:26:44.445Z,2.85
2022-10-06T21:29:14.072Z,3.20
2022-10-06T21:31:41.828Z,3.53
2022-10-06T21:34:09.112Z,3.10
2022-10-06T21:36:36.396Z,3.05
2022-10-06T21:39:06.659Z,2.67
2022-10-06T21:41:41.638Z,3.25
2022-10-06T21:44:13.272Z,3.23
2022-10-06T21:46:42.296Z,2.47
2022-10-06T21:49:13.856Z,3.20
2022-10-06T21:51:42.133Z,3.22
2022-10-06T21:54:12.322Z,3.38
2022-10-06T21:56:39.967Z,3.70
2022-10-06T21:59:07.364Z,2.88
2022-10-06T22:01:36.332Z,3.15
2022-10-06T22:04:03.871Z,3.38
2022-10-06T22:06:32.161Z,3.20
2022-10-06T22:08:59.694Z,3.73
2022-10-06T22:11:28.531Z,3.00
2022-10-06T22:13:57.024Z,3.40
2022-10-06T22:16:25.629Z,3.85
2022-10-06T22:18:53.067Z,3.28
2022-10-06T22:21:22.283Z,3.60
2022-10-06T22:23:54.430Z,2.83
2022-10-06T22:26:21.986Z,3.65
2022-10-06T22:28:50.159Z,3.70
2022-10-06T22:31:19.982Z,3.08
2022-10-06T22:33:52.351Z,3.40
2022-10-06T22:36:19.811Z,3.78
2022-10-06T22:38:47.102Z,3.40
2022-10-06T22:41:14.941Z,3.08
2022-10-06T22:43:42.427Z,3.15
2022-10-06T22:46:10.516Z,3.43
2022-10-06T22:48:38.127Z,3.40
2022-10-06T22:51:05.959Z,2.95
2022-10-06T22:53:33.703Z,3.45
2022-10-06T22:56:01.317Z,3.10
2022-10-06T22:58:28.779Z,2.40
2022-10-06T23:00:56.131Z,2.20
2022-10-06T23:03:23.861Z,3.00
2022-10-06T23:05:57.997Z,3.10
2022-10-06T23:08:25.818Z,2.83
2022-10-06T23:10:53.502Z,2.90
2022-10-06T23:13:20.965Z,2.60
2022-10-06T23:15:48.478Z,2.72
2022-10-06T23:18:15.807Z,2.50
2022-10-06T23:20:43.093Z,2.78
2022-10-06T23:23:11.385Z,2.73
2022-10-06T23:25:39.050Z,2.70
2022-10-06T23:28:06.394Z,3.00
2022-10-06T23:30:35.933Z,2.65
2022-10-06T23:33:03.710Z,3.13
2022-10-06T23:35:31.025Z,2.43
2022-10-06T23:37:58.288Z,3.63
2022-10-06T23:40:25.889Z,2.92
2022-10-06T23:42:53.257Z,2.55
2022-10-06T23:45:20.547Z,2.92
2022-10-06T23:47:47.944Z,3.00
2022-10-06T23:50:15.291Z,3.00
2022-10-06T23:52:42.566Z,3.22
2022-10-06T23:55:10.053Z,3.40
2022-10-06T23:57:37.358Z,3.20
